Time;durP1;ratioP1;P1;durP2;ratioP2;P2;SDS_P1;SDS_P2;PMS_P1;PMS_P2;Temp;Humidity;BMP_temperature;BMP_pressure;BME280_temperature;BME280_humidity;BME280_pressure;Samples;Min_cycle;Max_cycle;Signal;HPM_P1;HPM_P2
2022/06/03 00:00:33;;;;;;;2.65;0.85;;;20.50;58.10;;;;;;4467663;32;20153;-62
2022/06/03 00:03:09;;;;;;;0.80;0.30;;;20.50;58.10;;;;;;4468927;32;20471;-62
2022/06/03 00:05:47;;;;;;;2.42;0.50;;;20.50;58.10;;;;;;4463544;32;20113;-62
2022/06/03 00:08:45;;;;;;;2.20;0.60;;;20.50;58.10;;;;;;4467957;32;20259;-62
2022/06/03 00:11:51;;;;;;;1.33;0.65;;;20.50;58.10;;;;;;4466802;32;20148;-62
2022/06/03 00:14:55;;;;;;;0.73;0.40;;;20.50;58.10;;;;;;4467134;32;20187;-62
2022/06/03 00:17:47;;;;;;;0.52;0.50;;;20.40;58.00;;;;;;4406069;32;20137;-62
2022/06/03 00:20:25;;;;;;;1.58;0.70;;;20.50;58.10;;;;;;4465938;32;20256;-62
2022/06/03 00:23:21;;;;;;;2.33;0.80;;;20.50;58.10;;;;;;4465189;32;20163;-61
2022/06/03 00:26:25;;;;;;;1.13;0.50;;;20.50;58.10;;;;;;4467133;32;20121;-62
2022/06/03 00:29:18;;;;;;;1.30;0.60;;;20.40;58.00;;;;;;4469175;31;20357;-61
2022/06/03 00:32:11;;;;;;;2.03;0.47;;;20.40;58.00;;;;;;4465107;32;20291;-62
2022/06/03 00:35:04;;;;;;;1.25;0.47;;;20.40;58.00;;;;;;4453776;32;20191;-61
2022/06/03 00:37:54;;;;;;;0.55;0.30;;;20.40;58.10;;;;;;4466763;32;20161;-61
2022/06/03 00:40:53;;;;;;;0.60;0.50;;;20.40;58.10;;;;;;4467220;32;20133;-61
2022/06/03 00:44:04;;;;;;;1.23;0.63;;;20.40;58.10;;;;;;4466972;32;20133;-62
2022/06/03 00:46:58;;;;;;;0.50;0.50;;;20.40;58.00;;;;;;4466068;32;20129;-61
2022/06/03 00:49:33;;;;;;;0.73;0.47;;;20.40;58.10;;;;;;4464180;32;20140;-62
2022/06/03 00:52:27;;;;;;;0.68;0.38;;;20.40;58.10;;;;;;4466744;32;20275;-62
2022/06/03 00:55:01;;;;;;;1.23;0.38;;;20.40;58.10;;;;;;4466879;32;20141;-62
2022/06/03 00:57:55;;;;;;;1.33;0.70;;;20.40;58.20;;;;;;4466922;32;20145;-62
2022/06/03 01:00:32;;;;;;;1.70;0.30;;;20.40;58.10;;;;;;4466169;32;20236;-62
2022/06/03 01:03:07;;;;;;;0.82;0.43;;;20.40;58.10;;;;;;4465589;32;20160;-62
2022/06/03 01:05:42;;;;;;;1.65;0.50;;;20.30;58.10;;;;;;4465821;32;20542;-61
2022/06/03 01:08:35;;;;;;;2.00;0.40;;;20.40;58.10;;;;;;4465191;32;20125;-61
2022/06/03 01:11:14;;;;;;;0.98;0.47;;;20.40;58.00;;;;;;4469805;32;20279;-62
2022/06/03 01:14:02;;;;;;;1.00;0.45;;;20.30;58.10;;;;;;4467521;32;20141;-62
2022/06/03 01:17:07;;;;;;;0.60;0.40;;;20.30;58.10;;;;;;4467934;32;20204;-62
2022/06/03 01:19:39;;;;;;;1.42;0.50;;;20.30;58.10;;;;;;4464397;32;20207;-62
2022/06/03 01:22:58;;;;;;;0.50;0.30;;;20.30;58.20;;;;;;4465862;32;20139;-61
2022/06/03 01:25:43;;;;;;;0.65;0.43;;;20.30;58.10;;;;;;4415410;32;20157;-61
2022/06/03 01:28:27;;;;;;;1.52;0.40;;;20.30;58.20;;;;;;4466090;32;20147;-61
2022/06/03 01:31:29;;;;;;;0.80;0.45;;;20.30;58.20;;;;;;4467006;32;20133;-61
2022/06/03 01:34:17;;;;;;;2.63;0.50;;;20.30;58.20;;;;;;4463211;32;20145;-61
2022/06/03 01:36:49;;;;;;;1.35;0.50;;;20.30;58.20;;;;;;4464788;32;20133;-62
2022/06/03 01:39:51;;;;;;;0.60;0.40;;;20.30;58.30;;;;;;4465408;32;20313;-61
2022/06/03 01:42:41;;;;;;;1.02;0.50;;;20.30;58.20;;;;;;4441291;32;20152;-62
2022/06/03 01:45:17;;;;;;;0.50;0.43;;;20.30;58.20;;;;;;4464671;32;20133;-62
2022/06/03 01:48:10;;;;;;;0.30;0.20;;;20.30;58.30;;;;;;4475581;32;20144;-62
2022/06/03 01:50:43;;;;;;;0.88;0.40;;;20.20;58.30;;;;;;4462227;31;20137;-62
2022/06/03 01:53:43;;;;;;;1.00;0.43;;;20.20;58.30;;;;;;4464942;32;20748;-62
2022/06/03 01:56:43;;;;;;;3.22;0.57;;;20.20;58.30;;;;;;4464534;32;20180;-62
2022/06/03 01:59:15;;;;;;;0.88;0.40;;;20.20;58.20;;;;;;4466142;32;20134;-62
2022/06/03 02:02:18;;;;;;;0.63;0.40;;;20.20;58.30;;;;;;4466449;32;20187;-62
2022/06/03 02:04:54;;;;;;;0.60;0.30;;;20.20;58.20;;;;;;4465421;32;20290;-62
2022/06/03 02:08:04;;;;;;;0.55;0.30;;;20.20;58.20;;;;;;4464332;32;20141;-62
2022/06/03 02:11:04;;;;;;;0.52;0.28;;;20.20;58.20;;;;;;4448756;32;20152;-62
2022/06/03 02:13:52;;;;;;;0.60;0.40;;;20.20;58.10;;;;;;4476900;32;20133;-62
2022/06/03 02:16:55;;;;;;;1.65;0.47;;;20.20;58.20;;;;;;4456810;32;20135;-62
2022/06/03 02:20:00;;;;;;;1.00;0.40;;;20.10;58.10;;;;;;4474709;32;20125;-62
2022/06/03 02:22:51;;;;;;;1.50;0.60;;;20.10;58.10;;;;;;4478647;32;20128;-62
2022/06/03 02:25:23;;;;;;;1.30;0.60;;;20.10;58.10;;;;;;4481107;32;20267;-62
2022/06/03 02:28:26;;;;;;;0.85;0.43;;;20.10;58.10;;;;;;4479771;32;20207;-62
2022/06/03 02:31:20;;;;;;;0.57;0.30;;;20.10;58.00;;;;;;4480127;32;20552;-62
2022/06/03 02:34:07;;;;;;;0.45;0.28;;;20.10;58.10;;;;;;4480892;32;20181;-62
2022/06/03 02:36:33;;;;;;;1.02;0.40;;;20.10;58.10;;;;;;4470345;32;20135;-62
2022/06/03 02:39:19;;;;;;;0.82;0.40;;;20.10;58.20;;;;;;4483463;32;20128;-62
2022/06/03 02:41:46;;;;;;;0.50;0.40;;;20.10;58.10;;;;;;4483595;32;20151;-61
2022/06/03 02:44:30;;;;;;;1.10;0.40;;;20.10;58.10;;;;;;4483028;32;20113;-62
2022/06/03 02:47:18;;;;;;;0.30;0.30;;;20.10;58.10;;;;;;4470208;32;20133;-62
2022/06/03 02:49:59;;;;;;;0.43;0.35;;;20.10;58.10;;;;;;4468568;32;20133;-62
2022/06/03 02:53:04;;;;;;;0.60;0.35;;;20.10;58.10;;;;;;4483368;32;20137;-62
2022/06/03 02:55:52;;;;;;;0.73;0.28;;;20.00;57.90;;;;;;4470779;32;20218;-62
2022/06/03 02:58:48;;;;;;;0.30;0.30;;;20.00;58.00;;;;;;4482768;32;20198;-62
2022/06/03 03:01:33;;;;;;;0.57;0.40;;;20.00;58.00;;;;;;4482806;32;20129;-62
2022/06/03 03:04:36;;;;;;;1.25;0.45;;;20.00;58.00;;;;;;4483852;32;20591;-62
2022/06/03 03:07:23;;;;;;;0.50;0.20;;;20.00;58.00;;;;;;4482800;32;20318;-62
2022/06/03 03:10:19;;;;;;;0.22;0.20;;;20.00;58.10;;;;;;4482790;32;20562;-62
2022/06/03 03:12:47;;;;;;;0.57;0.45;;;20.00;58.00;;;;;;4483745;32;20141;-62
2022/06/03 03:15:16;;;;;;;1.23;0.50;;;20.00;58.10;;;;;;4468125;32;20290;-62
2022/06/03 03:17:48;;;;;;;0.98;0.30;;;20.00;58.10;;;;;;4483119;32;20601;-62
2022/06/03 03:20:47;;;;;;;0.55;0.30;;;20.00;58.20;;;;;;4472120;32;20129;-62
2022/06/03 03:23:53;;;;;;;0.70;0.40;;;20.00;58.10;;;;;;4474690;32;20194;-62
2022/06/03 03:26:45;;;;;;;0.47;0.40;;;19.90;58.00;;;;;;4483030;32;20125;-62
2022/06/03 03:29:27;;;;;;;0.75;0.30;;;19.90;58.10;;;;;;4483073;32;20144;-62
2022/06/03 03:32:02;;;;;;;0.90;0.40;;;19.90;58.00;;;;;;4482092;32;20668;-62
2022/06/03 03:35:25;;;;;;;0.63;0.38;;;19.90;58.10;;;;;;4483340;32;20129;-62
2022/06/03 03:38:09;;;;;;;1.05;0.30;;;19.90;58.00;;;;;;4403663;32;20244;-62
2022/06/03 03:41:05;;;;;;;0.55;0.30;;;19.90;58.10;;;;;;4402865;32;20123;-62
2022/06/03 03:43:44;;;;;;;0.20;0.20;;;19.90;58.10;;;;;;4442224;32;20271;-62
2022/06/03 03:46:30;;;;;;;0.60;0.38;;;19.90;58.10;;;;;;4480570;32;20144;-62
2022/06/03 03:49:24;;;;;;;0.45;0.30;;;19.90;58.10;;;;;;4481061;32;20186;-62
2022/06/03 03:52:09;;;;;;;0.98;0.40;;;19.90;58.10;;;;;;4473290;32;20143;-62
2022/06/03 03:55:14;;;;;;;0.45;0.30;;;19.90;58.20;;;;;;4468171;32;20129;-62
2022/06/03 03:58:03;;;;;;;0.73;0.30;;;19.90;58.10;;;;;;4481787;32;20133;-62
2022/06/03 04:01:23;;;;;;;0.73;0.40;;;19.90;58.20;;;;;;4482860;32;20125;-62
2022/06/03 04:03:55;;;;;;;0.50;0.40;;;19.80;58.10;;;;;;4483019;32;20125;-62
2022/06/03 04:06:59;;;;;;;0.32;0.20;;;19.80;58.30;;;;;;4481375;32;20143;-62
2022/06/03 04:09:53;;;;;;;0.28;0.25;;;19.80;58.20;;;;;;4468554;32;20573;-62
2022/06/03 04:12:34;;;;;;;0.45;0.35;;;19.80;58.20;;;;;;4482763;32;20504;-62
2022/06/03 04:15:38;;;;;;;0.55;0.30;;;19.80;58.30;;;;;;4481354;32;20188;-62
2022/06/03 04:18:29;;;;;;;1.50;0.30;;;19.80;58.30;;;;;;4482128;32;20235;-62
2022/06/03 04:20:58;;;;;;;0.50;0.28;;;19.80;58.30;;;;;;4471834;32;20573;-62
2022/06/03 04:24:01;;;;;;;0.65;0.30;;;19.80;58.40;;;;;;4467233;32;20792;-62
2022/06/03 04:27:01;;;;;;;0.77;0.30;;;19.80;58.30;;;;;;4468092;32;20148;-62
2022/06/03 04:30:02;;;;;;;0.35;0.30;;;19.80;58.40;;;;;;4482472;32;20183;-62
2022/06/03 04:32:46;;;;;;;0.45;0.30;;;19.80;58.50;;;;;;4481466;32;20582;-62
2022/06/03 04:35:37;;;;;;;0.40;0.30;;;19.80;58.40;;;;;;4481707;32;20285;-62
2022/06/03 04:38:50;;;;;;;0.35;0.30;;;19.80;58.40;;;;;;4482266;32;20140;-62
2022/06/03 04:41:28;;;;;;;0.50;0.20;;;19.80;58.40;;;;;;4481399;32;20311;-62
2022/06/03 04:44:19;;;;;;;0.88;0.20;;;19.80;58.70;;;;;;4481412;32;20187;-62
2022/06/03 04:47:13;;;;;;;0.60;0.30;;;19.80;58.80;;;;;;4469128;32;20168;-62
2022/06/03 04:50:00;;;;;;;0.87;0.30;;;19.80;58.70;;;;;;4479335;32;20190;-63
2022/06/03 04:52:41;;;;;;;0.82;0.20;;;19.80;58.70;;;;;;4481500;32;20132;-62
2022/06/03 04:55:37;;;;;;;0.30;0.20;;;19.70;58.60;;;;;;4468155;32;20129;-62
2022/06/03 04:58:28;;;;;;;0.20;0.20;;;19.70;58.50;;;;;;4480859;32;20156;-62
2022/06/03 05:01:28;;;;;;;0.38;0.25;;;19.80;58.70;;;;;;4481038;32;20191;-62
2022/06/03 05:04:18;;;;;;;0.80;0.30;;;19.70;58.80;;;;;;4482268;32;20125;-62
2022/06/03 05:07:12;;;;;;;0.77;0.30;;;19.70;58.80;;;;;;4480638;32;20347;-61
2022/06/03 05:09:56;;;;;;;0.47;0.30;;;19.80;58.90;;;;;;4481048;32;20145;-62
2022/06/03 05:12:31;;;;;;;0.60;0.30;;;19.70;58.90;;;;;;4482023;32;20133;-62
2022/06/03 05:15:45;;;;;;;0.75;0.25;;;19.70;58.90;;;;;;4480419;32;20125;-62
2022/06/03 05:18:42;;;;;;;0.35;0.20;;;19.80;59.00;;;;;;4463923;32;20194;-62
2022/06/03 05:21:49;;;;;;;0.32;0.28;;;19.70;59.00;;;;;;4481987;32;20263;-62
2022/06/03 05:24:20;;;;;;;0.35;0.20;;;19.80;59.20;;;;;;4481037;32;20136;-62
2022/06/03 05:27:18;;;;;;;0.40;0.20;;;19.70;59.10;;;;;;4466881;32;20570;-62
2022/06/03 05:29:53;;;;;;;0.55;0.28;;;19.70;59.20;;;;;;4481774;32;20129;-62
2022/06/03 05:32:45;;;;;;;0.32;0.22;;;19.70;59.30;;;;;;4480454;32;20275;-62
2022/06/03 05:35:38;;;;;;;0.50;0.30;;;19.70;59.20;;;;;;4440792;32;20202;-62
2022/06/03 05:38:42;;;;;;;0.30;0.30;;;19.80;59.10;;;;;;4481425;32;20301;-62
2022/06/03 05:44:44;;;;;;;0.47;0.22;;;19.80;59.30;;;;;;4480342;32;20129;-62
2022/06/03 05:47:20;;;;;;;0.30;0.20;;;19.80;59.30;;;;;;4481376;32;20136;-62
2022/06/03 05:50:22;;;;;;;0.55;0.30;;;19.80;59.30;;;;;;4480317;32;20206;-62
2022/06/03 05:52:54;;;;;;;0.30;0.20;;;19.80;59.40;;;;;;4480345;32;20139;-62
2022/06/03 05:55:30;;;;;;;0.32;0.30;;;19.80;59.30;;;;;;4481596;32;20128;-62
2022/06/03 05:58:25;;;;;;;0.20;0.15;;;19.80;59.40;;;;;;4480075;32;20136;-62
2022/06/03 06:01:16;;;;;;;0.20;0.20;;;19.80;59.40;;;;;;4475682;32;20113;-62
2022/06/03 06:03:55;;;;;;;0.32;0.20;;;19.80;59.40;;;;;;4471453;32;20587;-62
2022/06/03 06:07:03;;;;;;;0.30;0.20;;;19.80;59.30;;;;;;4479979;32;20290;-61
2022/06/03 06:09:45;;;;;;;0.40;0.30;;;19.90;59.50;;;;;;4470394;32;20113;-62
2022/06/03 06:12:40;;;;;;;0.55;0.10;;;19.90;59.40;;;;;;4480584;32;20478;-62
2022/06/03 06:15:48;;;;;;;0.22;0.20;;;19.90;59.40;;;;;;4446611;32;20133;-62
2022/06/03 06:18:21;;;;;;;0.65;0.30;;;19.90;59.40;;;;;;4476609;32;20183;-62
2022/06/03 06:20:53;;;;;;;0.57;0.20;;;19.90;59.10;;;;;;4469956;32;20144;-62
2022/06/03 06:23:36;;;;;;;0.40;0.40;;;19.90;58.90;;;;;;4479720;32;20144;-62
2022/06/03 06:26:32;;;;;;;0.40;0.30;;;19.90;59.20;;;;;;4480712;32;20125;-62
2022/06/03 06:29:07;;;;;;;0.40;0.35;;;20.00;59.10;;;;;;4480487;32;20141;-62
2022/06/03 06:31:53;;;;;;;0.60;0.35;;;20.00;59.30;;;;;;4469372;32;20156;-62
2022/06/03 06:34:22;;;;;;;0.20;0.20;;;20.00;59.50;;;;;;4465589;32;20263;-63
2022/06/03 06:36:51;;;;;;;0.32;0.22;;;20.00;59.50;;;;;;4463685;32;20129;-62
2022/06/03 06:39:38;;;;;;;0.82;0.30;;;20.00;59.60;;;;;;4467840;32;20266;-62
2022/06/03 06:42:18;;;;;;;1.60;0.30;;;20.10;59.70;;;;;;4466224;32;20189;-62
2022/06/03 06:45:10;;;;;;;0.20;0.20;;;20.10;59.60;;;;;;4466004;32;20789;-62
2022/06/03 06:47:47;;;;;;;1.60;0.30;;;20.10;59.70;;;;;;4465831;32;20564;-62
2022/06/03 06:50:27;;;;;;;0.57;0.30;;;20.10;59.70;;;;;;4471035;32;20444;-62
2022/06/03 06:53:25;;;;;;;0.30;0.28;;;20.10;59.60;;;;;;4479729;32;20154;-62
2022/06/03 06:56:07;;;;;;;0.77;0.30;;;20.20;59.40;;;;;;4471105;32;20121;-61
2022/06/03 06:58:42;;;;;;;0.50;0.20;;;20.20;58.90;;;;;;4470458;32;20510;-62
2022/06/03 07:01:10;;;;;;;0.52;0.40;;;20.30;58.90;;;;;;4479550;32;20175;-61
2022/06/03 07:03:56;;;;;;;0.55;0.40;;;20.30;58.60;;;;;;4480161;32;20196;-61
2022/06/03 07:06:33;;;;;;;1.77;0.40;;;20.40;58.40;;;;;;4479024;32;20239;-61
2022/06/03 07:09:26;;;;;;;1.40;0.47;;;20.50;58.50;;;;;;4480150;32;20132;-62
2022/06/03 07:12:02;;;;;;;1.10;0.35;;;20.50;58.40;;;;;;4480218;32;20143;-61
2022/06/03 07:14:32;;;;;;;2.97;0.35;;;20.60;58.00;;;;;;4473364;32;20148;-62
2022/06/03 07:20:07;;;;;;;1.38;0.55;;;20.70;57.80;;;;;;4473502;32;20137;-62
2022/06/03 07:22:55;;;;;;;4.55;0.80;;;20.70;57.70;;;;;;4479394;32;20194;-61
2022/06/03 07:25:47;;;;;;;1.60;0.60;;;20.80;57.70;;;;;;4485423;31;20537;-61
2022/06/03 07:28:25;;;;;;;1.00;0.55;;;20.80;57.60;;;;;;4480245;31;20177;-61
2022/06/03 07:31:28;;;;;;;2.10;0.40;;;20.80;57.40;;;;;;4482138;31;20148;-61
2022/06/03 07:34:07;;;;;;;0.55;0.30;;;20.90;57.30;;;;;;4482898;32;20132;-61
2022/06/03 07:36:52;;;;;;;2.83;0.45;;;20.90;57.20;;;;;;4472595;32;20180;-62
2022/06/03 07:39:26;;;;;;;3.78;0.50;;;20.90;57.00;;;;;;4482586;32;20128;-61
2022/06/03 07:42:09;;;;;;;0.90;0.38;;;21.00;56.90;;;;;;4482778;32;20131;-61
2022/06/03 07:44:46;;;;;;;1.10;0.60;;;21.00;56.80;;;;;;4481960;32;20132;-61
2022/06/03 07:47:15;;;;;;;2.72;0.55;;;21.00;56.50;;;;;;4476526;32;20545;-61
2022/06/03 07:49:45;;;;;;;2.83;0.40;;;21.10;56.80;;;;;;4476768;31;20152;-61
2022/06/03 07:52:36;;;;;;;0.80;0.30;;;21.10;56.30;;;;;;4481985;31;20148;-61
2022/06/03 07:55:10;;;;;;;0.95;0.40;;;21.20;55.80;;;;;;4481851;31;20623;-61
2022/06/03 07:57:36;;;;;;;0.90;0.60;;;21.20;55.70;;;;;;4481272;31;20141;-61
2022/06/03 08:00:06;;;;;;;1.20;0.50;;;21.20;55.30;;;;;;4482222;31;20218;-61
2022/06/03 08:02:32;;;;;;;1.45;0.65;;;21.20;55.10;;;;;;4481833;31;20314;-61
2022/06/03 08:05:19;;;;;;;2.92;0.50;;;21.30;55.00;;;;;;4482034;32;20129;-61
2022/06/03 08:10:57;;;;;;;0.57;0.40;;;21.30;54.60;;;;;;4481335;32;20210;-61
2022/06/03 08:13:48;;;;;;;2.80;0.38;;;21.40;54.60;;;;;;4482072;32;20137;-61
2022/06/03 08:16:25;;;;;;;1.25;0.45;;;21.40;54.20;;;;;;4476638;32;20270;-61
2022/06/03 08:18:55;;;;;;;1.35;0.30;;;21.40;54.20;;;;;;4479651;32;20129;-61
2022/06/03 08:21:41;;;;;;;1.75;0.47;;;21.40;54.10;;;;;;4474056;32;20137;-61
2022/06/03 08:24:12;;;;;;;3.60;0.50;;;21.50;53.70;;;;;;4481765;32;20168;-61
2022/06/03 08:26:39;;;;;;;0.55;0.30;;;21.50;53.70;;;;;;4481994;32;20137;-61
2022/06/03 08:29:24;;;;;;;1.50;0.40;;;21.50;53.30;;;;;;4482289;32;20140;-61
2022/06/03 08:31:51;;;;;;;2.42;0.77;;;21.50;53.30;;;;;;4481143;32;20129;-61
2022/06/03 08:34:27;;;;;;;2.15;0.40;;;21.60;53.20;;;;;;4482401;32;20249;-62
2022/06/03 08:36:54;;;;;;;1.50;0.40;;;21.60;53.20;;;;;;4480144;32;20109;-61
2022/06/03 08:39:24;;;;;;;1.65;0.50;;;21.60;53.00;;;;;;4481493;32;20291;-61
2022/06/03 08:42:18;;;;;;;4.03;1.10;;;21.60;52.90;;;;;;4482012;32;20129;-61
2022/06/03 08:44:50;;;;;;;2.45;0.60;;;21.60;52.30;;;;;;4480757;32;20183;-61
2022/06/03 08:47:34;;;;;;;0.95;0.70;;;21.60;52.00;;;;;;4481778;32;20141;-61
2022/06/03 08:50:28;;;;;;;1.77;0.60;;;21.60;51.40;;;;;;4481359;32;20129;-61
2022/06/03 08:53:10;;;;;;;2.47;0.60;;;21.60;50.20;;;;;;4480766;32;20268;-61
2022/06/03 08:55:48;;;;;;;2.03;0.80;;;21.60;50.90;;;;;;4482122;31;20214;-62
2022/06/03 08:58:29;;;;;;;1.65;0.55;;;21.60;50.70;;;;;;4480095;31;20129;-61
2022/06/03 09:01:16;;;;;;;1.23;0.45;;;21.60;49.60;;;;;;4475468;32;20129;-61
2022/06/03 09:04:00;;;;;;;1.42;0.55;;;21.70;49.50;;;;;;4481873;32;20125;-61
2022/06/03 09:06:32;;;;;;;2.85;0.60;;;21.70;49.60;;;;;;4480759;32;20124;-61
2022/06/03 09:09:21;;;;;;;0.98;0.60;;;21.70;49.90;;;;;;4481234;32;20155;-61
2022/06/03 09:11:53;;;;;;;1.95;0.50;;;21.70;49.40;;;;;;4481410;32;20501;-61
2022/06/03 09:14:22;;;;;;;3.17;0.80;;;21.70;49.30;;;;;;4480622;32;20190;-64
2022/06/03 09:16:52;;;;;;;3.92;0.70;;;21.60;49.40;;;;;;4481698;32;20133;-62
2022/06/03 09:19:28;;;;;;;2.53;0.88;;;21.60;49.30;;;;;;4475818;32;20199;-62
2022/06/03 09:21:57;;;;;;;1.48;0.60;;;21.60;48.60;;;;;;4475991;32;20145;-62
2022/06/03 09:24:31;;;;;;;1.40;0.60;;;21.60;48.80;;;;;;4481160;32;20132;-62
2022/06/03 09:27:00;;;;;;;1.75;0.93;;;21.60;48.80;;;;;;4482643;31;20128;-62
2022/06/03 09:29:26;;;;;;;1.38;0.63;;;21.60;48.90;;;;;;4481190;31;20301;-62
2022/06/03 09:32:00;;;;;;;1.45;0.50;;;21.60;48.90;;;;;;4480071;32;20136;-61
2022/06/03 09:34:47;;;;;;;3.72;0.98;;;21.60;48.70;;;;;;4480246;32;20171;-61
2022/06/03 09:37:36;;;;;;;3.03;0.80;;;21.60;48.60;;;;;;4480378;31;20247;-62
2022/06/03 09:40:06;;;;;;;3.28;0.88;;;21.50;48.10;;;;;;4478931;32;20254;-61
2022/06/03 09:42:33;;;;;;;3.05;0.73;;;21.50;48.60;;;;;;4481371;32;20143;-61
2022/06/03 09:45:03;;;;;;;2.08;0.80;;;21.50;48.60;;;;;;4480180;32;20542;-61
2022/06/03 09:47:31;;;;;;;1.90;0.80;;;21.50;48.60;;;;;;4480188;31;20149;-63
2022/06/03 09:49:58;;;;;;;1.40;0.77;;;21.50;48.70;;;;;;4479533;31;20133;-65
2022/06/03 09:52:27;;;;;;;2.05;0.98;;;21.50;48.90;;;;;;4480059;31;20133;-64
2022/06/03 09:54:54;;;;;;;2.58;0.90;;;21.50;48.90;;;;;;4481530;31;20779;-64
2022/06/03 09:57:41;;;;;;;4.28;1.02;;;21.50;49.10;;;;;;4479791;31;20129;-66
2022/06/03 10:00:17;;;;;;;4.35;1.30;;;21.50;49.20;;;;;;4480295;31;20128;-62
2022/06/03 10:02:53;;;;;;;5.57;1.00;;;21.40;49.50;;;;;;4467771;32;20153;-62
2022/06/03 10:05:20;;;;;;;3.08;0.82;;;21.40;49.80;;;;;;4463454;32;20594;-62
2022/06/03 10:07:50;;;;;;;4.88;0.90;;;21.40;50.30;;;;;;4460454;32;20145;-61
2022/06/03 10:13:15;;;;;;;3.75;1.10;;;21.40;50.50;;;;;;4432534;32;20146;-62
2022/06/03 10:15:45;;;;;;;3.65;1.05;;;21.30;51.20;;;;;;4480513;32;20156;-62
2022/06/03 10:18:42;;;;;;;3.65;1.05;;;21.30;51.70;;;;;;4480194;32;20603;-62
2022/06/03 10:21:10;;;;;;;3.58;1.00;;;21.30;52.30;;;;;;4471855;32;20133;-62
2022/06/03 10:23:41;;;;;;;2.45;0.75;;;21.30;52.10;;;;;;4481052;32;20179;-62
2022/06/03 10:26:17;;;;;;;3.05;0.90;;;21.30;52.30;;;;;;4459808;32;20235;-61
2022/06/03 10:28:43;;;;;;;7.40;0.80;;;21.30;52.70;;;;;;4479399;32;20214;-62
2022/06/03 10:31:20;;;;;;;4.32;0.80;;;21.30;53.00;;;;;;4478253;32;20129;-62
2022/06/03 10:33:58;;;;;;;2.22;0.70;;;21.30;52.90;;;;;;4481545;32;20117;-61
2022/06/03 10:36:28;;;;;;;1.98;0.80;;;21.20;53.30;;;;;;4479959;32;20307;-62
2022/06/03 10:38:54;;;;;;;6.90;1.00;;;21.30;52.90;;;;;;4480665;32;20140;-62
2022/06/03 10:41:38;;;;;;;4.90;0.80;;;21.30;53.10;;;;;;4480248;32;20140;-63
2022/06/03 10:44:16;;;;;;;2.15;0.70;;;21.30;53.00;;;;;;4480110;32;20183;-62
2022/06/03 10:47:34;;;;;;;1.88;0.68;;;21.30;53.20;;;;;;4481148;32;20156;-62
2022/06/03 10:50:05;;;;;;;1.77;0.77;;;21.30;53.20;;;;;;4466545;32;20275;-61
2022/06/03 11:01:46;;;;;;;1.95;0.68;;;21.30;53.70;;;;;;4483045;32;20211;-62
2022/06/03 11:04:30;;;;;;;3.75;0.70;;;21.30;53.80;;;;;;4467259;32;20129;-62
2022/06/03 11:07:03;;;;;;;2.53;0.80;;;21.30;53.60;;;;;;4483233;32;20140;-62
2022/06/03 11:09:29;;;;;;;1.70;0.65;;;21.20;54.90;;;;;;4483083;32;20139;-62
2022/06/03 11:12:01;;;;;;;1.50;0.80;;;21.30;54.10;;;;;;4483482;32;20176;-62
2022/06/03 11:14:30;;;;;;;4.65;0.68;;;21.30;54.00;;;;;;4476334;32;20125;-62
2022/06/03 11:17:05;;;;;;;1.52;0.85;;;21.30;54.40;;;;;;4483792;32;20129;-62
2022/06/03 11:19:44;;;;;;;3.05;0.75;;;21.30;54.00;;;;;;4470226;32;20159;-62
2022/06/03 11:22:24;;;;;;;1.45;0.80;;;21.30;54.30;;;;;;4479637;32;20640;-62
2022/06/03 11:24:56;;;;;;;1.95;0.63;;;21.30;54.00;;;;;;4483728;32;20514;-62
2022/06/03 11:27:39;;;;;;;1.30;0.60;;;21.30;54.30;;;;;;4482407;32;20135;-62
2022/06/03 11:30:43;;;;;;;2.15;0.80;;;21.30;54.10;;;;;;4483722;32;20125;-62
2022/06/03 11:33:28;;;;;;;2.78;0.65;;;21.30;54.30;;;;;;4432838;32;20136;-62
2022/06/03 11:36:09;;;;;;;1.88;0.50;;;21.30;54.50;;;;;;4482133;32;20135;-62
2022/06/03 11:38:44;;;;;;;1.98;0.60;;;21.30;54.40;;;;;;4483642;32;20192;-62
2022/06/03 11:41:46;;;;;;;2.03;0.60;;;21.30;54.60;;;;;;4482644;32;20143;-62
2022/06/03 11:44:31;;;;;;;1.67;0.60;;;21.30;55.00;;;;;;4458123;32;20179;-62
2022/06/03 11:47:10;;;;;;;3.67;0.77;;;21.30;54.70;;;;;;4483686;32;20789;-62
2022/06/03 11:49:36;;;;;;;1.30;0.65;;;21.30;54.70;;;;;;4468958;32;20668;-62
2022/06/03 11:52:03;;;;;;;1.27;0.60;;;21.30;55.00;;;;;;4468579;32;20211;-62
2022/06/03 11:54:31;;;;;;;2.30;0.70;;;21.30;55.10;;;;;;4482784;32;20133;-62
2022/06/03 11:57:00;;;;;;;0.90;0.60;;;21.20;55.00;;;;;;4482168;32;20165;-62
2022/06/03 11:59:31;;;;;;;1.40;0.70;;;21.30;55.00;;;;;;4483383;32;20132;-62
2022/06/03 12:02:21;;;;;;;0.63;0.50;;;21.30;54.70;;;;;;4481965;32;20140;-61
2022/06/03 12:05:04;;;;;;;3.40;0.88;;;21.30;54.60;;;;;;4482513;32;20569;-62
2022/06/03 12:07:42;;;;;;;1.27;0.80;;;21.30;54.80;;;;;;4482729;32;20135;-62
2022/06/03 12:10:11;;;;;;;1.15;0.47;;;21.30;54.80;;;;;;4480810;32;20207;-62
2022/06/03 12:15:32;;;;;;;1.27;0.60;;;21.30;54.80;;;;;;4482323;32;20117;-62
2022/06/03 12:18:12;;;;;;;1.52;0.63;;;21.30;54.60;;;;;;4482430;32;20168;-62
2022/06/03 12:20:51;;;;;;;3.42;0.73;;;21.30;54.50;;;;;;4469476;32;20204;-62
2022/06/03 12:23:17;;;;;;;1.55;0.80;;;21.30;54.50;;;;;;4481614;32;20250;-62
2022/06/03 12:25:49;;;;;;;0.70;0.40;;;21.40;54.60;;;;;;4482658;32;20542;-62
2022/06/03 12:28:23;;;;;;;1.52;0.65;;;21.30;54.60;;;;;;4481940;32;20148;-62
2022/06/03 12:30:51;;;;;;;2.70;0.60;;;21.30;54.60;;;;;;4467854;32;20255;-62
2022/06/03 12:33:42;;;;;;;1.23;0.50;;;21.40;54.60;;;;;;4482725;32;20250;-62
2022/06/03 12:36:50;;;;;;;0.75;0.40;;;21.40;54.60;;;;;;4481283;32;20113;-62
2022/06/03 12:39:45;;;;;;;1.63;0.57;;;21.40;54.50;;;;;;4481902;32;20128;-62
2022/06/03 12:42:37;;;;;;;2.03;0.70;;;21.40;54.50;;;;;;4482876;32;20140;-62
2022/06/03 12:45:03;;;;;;;1.65;0.52;;;21.40;54.60;;;;;;4481596;32;20121;-62
2022/06/03 12:47:31;;;;;;;1.10;0.57;;;21.40;54.60;;;;;;4482082;32;20183;-62
2022/06/03 12:50:03;;;;;;;1.35;0.40;;;21.40;54.50;;;;;;4481603;32;20137;-62
2022/06/03 12:52:30;;;;;;;1.77;0.63;;;21.40;54.50;;;;;;4481596;32;20242;-62
2022/06/03 12:55:04;;;;;;;1.35;0.60;;;21.40;54.40;;;;;;4482055;31;20117;-61
2022/06/03 12:57:51;;;;;;;2.17;0.50;;;21.40;54.40;;;;;;4480911;32;20139;-62
2022/06/03 13:00:32;;;;;;;0.95;0.40;;;21.50;53.30;;;;;;4482007;32;20121;-62
2022/06/03 13:03:27;;;;;;;2.35;0.65;;;21.60;52.70;;;;;;4478119;32;20151;-62
2022/06/03 13:05:58;;;;;;;1.25;0.60;;;21.70;52.10;;;;;;4480717;32;20121;-61
2022/06/03 13:08:27;;;;;;;4.95;0.80;;;21.80;51.90;;;;;;4481865;32;20541;-62
2022/06/03 13:10:53;;;;;;;4.90;0.88;;;21.80;51.60;;;;;;4480939;31;20108;-61
2022/06/03 13:13:29;;;;;;;2.72;0.80;;;21.80;50.70;;;;;;4481351;32;20174;-62
2022/06/03 13:16:17;;;;;;;3.22;0.60;;;21.70;50.10;;;;;;4481783;32;20139;-62
2022/06/03 13:18:52;;;;;;;2.88;0.75;;;21.60;49.20;;;;;;4479517;32;20144;-61
2022/06/03 13:21:25;;;;;;;1.80;0.70;;;21.60;49.50;;;;;;4472743;32;20144;-62
2022/06/03 13:23:51;;;;;;;4.15;0.80;;;21.60;49.40;;;;;;4481105;32;20121;-62
2022/06/03 13:26:20;;;;;;;4.45;1.17;;;21.50;49.50;;;;;;4481403;32;20168;-61
2022/06/03 13:28:57;;;;;;;3.05;0.80;;;21.50;49.40;;;;;;4467451;32;20116;-62
2022/06/03 13:31:47;;;;;;;3.30;0.85;;;21.50;48.90;;;;;;4470834;32;20573;-62
2022/06/03 13:34:27;;;;;;;2.05;0.93;;;21.40;48.70;;;;;;4481685;32;20143;-62
2022/06/03 13:37:30;;;;;;;2.35;0.65;;;21.40;48.60;;;;;;4481192;32;20117;-61
2022/06/03 13:39:56;;;;;;;2.15;0.63;;;21.40;48.80;;;;;;4480669;32;20129;-61
2022/06/03 13:45:12;;;;;;;4.47;0.80;;;21.30;48.90;;;;;;4480735;32;20259;-61
2022/06/03 13:47:40;;;;;;;2.35;0.70;;;21.30;48.70;;;;;;4481118;32;20275;-62
2022/06/03 13:50:20;;;;;;;2.20;0.65;;;21.30;48.60;;;;;;4481044;32;20144;-61
2022/06/03 13:52:47;;;;;;;3.35;1.10;;;21.30;48.60;;;;;;4480172;32;20141;-61
2022/06/03 13:55:28;;;;;;;2.83;0.73;;;21.20;48.90;;;;;;4481826;32;20187;-61
2022/06/03 13:58:01;;;;;;;3.90;0.70;;;21.30;49.10;;;;;;4480527;32;20152;-61
2022/06/03 14:00:39;;;;;;;2.60;0.95;;;21.20;49.40;;;;;;4481131;32;20282;-62
2022/06/03 14:03:13;;;;;;;5.90;0.82;;;21.20;49.10;;;;;;4480828;31;20121;-62
2022/06/03 14:05:47;;;;;;;3.88;0.88;;;21.30;49.00;;;;;;4479809;32;20137;-63
2022/06/03 14:08:35;;;;;;;5.07;0.95;;;21.20;48.90;;;;;;4480982;32;20129;-62
2022/06/03 14:11:12;;;;;;;3.80;0.95;;;21.20;49.20;;;;;;4480235;31;20132;-62
2022/06/03 14:13:47;;;;;;;3.28;0.85;;;21.20;49.50;;;;;;4480262;32;20136;-62
2022/06/03 14:16:27;;;;;;;3.13;0.73;;;21.20;49.40;;;;;;4480679;32;20141;-62
2022/06/03 14:18:54;;;;;;;4.28;0.80;;;21.20;49.20;;;;;;4477280;32;20121;-62
2022/06/03 14:21:45;;;;;;;1.85;0.70;;;21.20;49.00;;;;;;4472500;32;20479;-62
2022/06/03 14:24:22;;;;;;;2.78;0.65;;;21.20;48.60;;;;;;4471517;32;20128;-63
2022/06/03 14:26:54;;;;;;;1.60;0.50;;;21.20;48.70;;;;;;4466387;32;20171;-62
2022/06/03 14:29:29;;;;;;;4.95;0.68;;;21.20;48.70;;;;;;4481320;32;20124;-62
2022/06/03 14:32:06;;;;;;;2.38;0.82;;;21.30;48.70;;;;;;4479873;32;20472;-62
2022/06/03 14:34:35;;;;;;;3.83;0.93;;;21.40;48.70;;;;;;4483107;32;20125;-62